Flight Track Log - Related Links

Times and Time Zones

All times are in EDT time to prevent confusion due to time zone crossing. See the EGF3395 flight status page for this flight to view local times or setup timezone preferences in your user account.

Time Position Orientation Groundspeed Altitude Reporting Facility
EDT Latitude Longitude Course Direction KTS MPH feet Rate Location/Type
Sun 06:10:31 AM 32.9522 -80.1100 276° West 231 266 3,600  Level Jacksonville Center
Sun 06:11:00 AM 32.9333 -80.3091 270° West  Level FlightAware Approximate
Sun 06:11:31 AM 32.9494 -80.1819 267° West 242 278 5,300  Level Jacksonville Center
Sun 06:12:00 AM 32.9334 -80.4169 270° West  Level FlightAware Approximate
Sun 06:12:31 AM 32.9450 -80.2686 267° West 256 295 7,800  Level Jacksonville Center
Sun 06:13:00 AM 32.9341 -80.5247 276° West  Level FlightAware Approximate
Sun 06:13:31 AM 32.9428 -80.3578 268° West 270 311 10,200  Level Jacksonville Center
Sun 06:14:00 AM 32.9438 -80.6318 276° West  Level FlightAware Approximate
Sun 06:14:31 AM 32.9383 -80.4544 267° West 284 327 11,700  Level Jacksonville Center
Sun 06:15:00 AM 32.9542 -80.7453 276° West  Level FlightAware Approximate
Sun 06:15:31 AM 32.9425 -80.5558 273° West 296 341 13,400  Level Jacksonville Center
Sun 06:16:31 AM 32.9528 -80.6619 277° West 296 341 15,300 1,850 Climbing Jacksonville Center
Sun 06:17:31 AM 32.9628 -80.7633 277° West 302 348 17,100 1,650 Climbing Jacksonville Center
Sun 06:18:31 AM 32.9728 -80.8647 277° West 307 353 18,600 1,400 Climbing Jacksonville Center
Sun 06:19:31 AM 33.0014 -80.9581 290° West 312 359 19,900 1,500 Climbing Jacksonville Center
Sun 06:20:31 AM 33.0508 -81.0511 302° West 312 359 21,600 1,610 Climbing Jacksonville Center
Sun 06:22:15 AM 33.1247 -81.1939 302° West 316 364 24,300 1,610 Climbing Atlanta Center
Sun 06:23:15 AM 33.1664 -81.2819 299° West 316 364 26,000 1,600 Climbing Atlanta Center
Sun 06:24:15 AM 33.2122 -81.3697 302° West 311 358 27,500 1,500 Climbing Atlanta Center
Sun 06:25:15 AM 33.2536 -81.4528 301° West 311 358 29,000 1,450 Climbing Atlanta Center
Sun 06:26:15 AM 33.2931 -81.5411 298° West 300 345 30,400 1,450 Climbing Atlanta Center
Sun 06:27:15 AM 33.3386 -81.6319 301° West 300 345 31,900 1,400 Climbing Atlanta Center
Sun 06:28:15 AM 33.3800 -81.7178 300° West 300 345 33,200 1,200 Climbing Atlanta Center
Sun 06:29:15 AM 33.4189 -81.8014 299° West 300 345 34,300 1,050 Climbing Atlanta Center
Sun 06:30:15 AM 33.4603 -81.8850 301° West 294 338 35,300 850 Climbing Atlanta Center
Sun 06:31:15 AM 33.4992 -81.9661 300° West 289 333 36,000 350 Climbing Atlanta Center
Sun 06:32:15 AM 33.5403 -82.0525 300° West 289 333 36,000  Level Atlanta Center
Sun 06:33:15 AM 33.5856 -82.1461 300° West 303 349 36,000  Level Atlanta Center
Sun 06:34:15 AM 33.6331 -82.2450 300° West 316 364 36,000  Level Atlanta Center
Sun 06:35:15 AM 33.6803 -82.3514 298° West 349 402 36,000  Level Atlanta Center
Sun 06:36:15 AM 33.7256 -82.4503 299° West 349 402 36,000  Level Atlanta Center
Sun 06:37:15 AM 33.7789 -82.5542 302° West 349 402 36,000  Level Atlanta Center
Sun 06:38:15 AM 33.8261 -82.6558 299° West 349 402 36,000  Level Atlanta Center
Sun 06:39:15 AM 33.8667 -82.7478 298° West 344 396 36,000  Level Atlanta Center
Sun 06:40:15 AM 33.9158 -82.8522 300° West 350 403 36,000  Level Atlanta Center
Sun 06:41:15 AM 33.9669 -82.9517 302° West 350 403 36,000  Level Atlanta Center
Sun 06:42:15 AM 34.0136 -83.0564 298° West 350 403 36,000  Level Atlanta Center
Sun 06:43:15 AM 34.0625 -83.1611 299° West 350 403 36,000  Level Atlanta Center
Sun 06:44:15 AM 34.1111 -83.2636 300° West 350 403 36,000  Level Atlanta Center
Sun 06:45:15 AM 34.1578 -83.3686 298° West 350 403 36,000  Level Atlanta Center
Sun 06:46:15 AM 34.2083 -83.4711 301° West 350 403 36,000  Level Atlanta Center
Sun 06:47:15 AM 34.2589 -83.5864 298° West 344 396 36,000  Level Atlanta Center
Sun 06:48:15 AM 34.3031 -83.6917 297° West 349 402 36,000  Level Atlanta Center
Sun 06:49:15 AM 34.3261 -83.7972 285° West 330 380 36,000  Level Atlanta Center
Sun 06:50:15 AM 34.3389 -83.9106 278° West 330 380 36,000  Level Atlanta Center
Sun 06:51:15 AM 34.3556 -84.0186 281° West 330 380 36,000  Level Atlanta Center
Sun 06:52:15 AM 34.3703 -84.1294 279° West 335 386 36,000  Level Atlanta Center
Sun 06:53:15 AM 34.3847 -84.2428 279° West 335 386 36,000  Level Atlanta Center
Sun 06:54:15 AM 34.4011 -84.3483 281° West 330 380 36,000  Level Atlanta Center
Sun 06:55:15 AM 34.4156 -84.4592 279° West 336 387 36,000  Level Atlanta Center
Sun 06:56:15 AM 34.4297 -84.5703 279° West 331 381 36,000  Level Atlanta Center
Sun 06:57:15 AM 34.4458 -84.6786 280° West 331 381 36,000  Level Atlanta Center
Sun 06:58:15 AM 34.4578 -84.7894 277° West 331 381 36,000  Level Atlanta Center
Sun 06:59:15 AM 34.4717 -84.8981 279° West 331 381 36,000  Level Atlanta Center
Sun 07:00:15 AM 34.4875 -85.0092 280° West 331 381 36,000  Level Atlanta Center
Sun 07:01:15 AM 34.4972 -85.1050 277° West 331 381 36,000  Level Atlanta Center
Sun 07:02:15 AM 34.5106 -85.2261 278° West 331 381 36,000  Level Atlanta Center
Sun 07:03:15 AM 34.5264 -85.3347 280° West 331 381 36,000  Level Atlanta Center
Sun 07:04:15 AM 34.5375 -85.4433 277° West 331 381 36,000  Level Atlanta Center
Sun 07:05:15 AM 34.5508 -85.5519 279° West 331 381 36,000  Level Atlanta Center
Sun 07:06:15 AM 34.5661 -85.6608 280° West 331 381 36,000  Level Atlanta Center
Sun 07:07:15 AM 34.5794 -85.7719 278° West 331 381 36,000  Level Atlanta Center
Sun 07:08:15 AM 34.5944 -85.8758 280° West 331 381 36,000  Level Atlanta Center
Sun 07:09:15 AM 34.6075 -85.9847 278° West 331 381 36,000  Level Atlanta Center
Sun 07:10:15 AM 34.6203 -86.0933 278° West 331 381 36,000  Level Atlanta Center
Sun 07:11:15 AM 34.6331 -86.2047 278° West 331 381 36,000  Level Atlanta Center
Sun 07:12:15 AM 34.6456 -86.3136 278° West 331 381 36,000  Level Atlanta Center
Sun 07:13:32 AM 34.6597 -86.4461 277° West 333 383 36,000  Level Memphis Center
Sun 07:14:32 AM 34.6717 -86.5567 278° West 333 383 36,000  Level Memphis Center
Sun 07:15:32 AM 34.6853 -86.6672 279° West 333 383 36,000  Level Memphis Center
Sun 07:16:32 AM 34.6992 -86.7803 279° West 333 383 36,000  Level Memphis Center
Sun 07:17:32 AM 34.7106 -86.8933 277° West 333 383 36,000  Level Memphis Center
Sun 07:18:32 AM 34.7222 -87.0067 277° West 342 394 36,000  Level Memphis Center
Sun 07:19:32 AM 34.7294 -87.1303 274° West 347 399 36,000  Level Memphis Center
Sun 07:20:32 AM 34.7283 -87.2439 269° West 342 394 36,000  Level Memphis Center
Sun 07:21:32 AM 34.7289 -87.3525 270° West 336 387 36,000  Level Memphis Center
Sun 07:22:32 AM 34.7317 -87.4661 272° West 342 394 36,000  Level Memphis Center
Sun 07:23:32 AM 34.7319 -87.5697 270° West 342 394 36,000  Level Memphis Center
Sun 07:24:32 AM 34.7364 -87.6858 273° West 342 394 36,000  Level Memphis Center
Sun 07:25:32 AM 34.7328 -87.8097 268° West 342 394 36,000  Level Memphis Center
Sun 07:26:32 AM 34.7350 -87.9236 271° West 347 399 36,000  Level Memphis Center
Sun 07:27:32 AM 34.7353 -88.0422 270° West 347 399 36,000  Level Memphis Center
Sun 07:28:32 AM 34.7353 -88.1561 270° West 347 399 36,000  Level Memphis Center
Sun 07:29:32 AM 34.7353 -88.2697 270° West 353 406 36,000  Level Memphis Center
Sun 07:30:32 AM 34.7347 -88.3758 270° West 353 406 36,000  Level Memphis Center
Sun 07:31:32 AM 34.7369 -88.5097 271° West 342 394 36,000  Level Memphis Center
Sun 07:32:32 AM 34.7344 -88.6286 269° West 347 399 36,000  Level Memphis Center
Sun 07:33:32 AM 34.7361 -88.7497 271° West 347 399 36,000  Level Memphis Center
Sun 07:34:32 AM 34.7353 -88.8561 269° West 352 405 36,000  Level Memphis Center
Sun 07:35:32 AM 34.7347 -88.9772 270° West 352 405 36,000  Level Memphis Center
Sun 07:36:32 AM 34.7317 -89.0986 268° West 352 405 36,000  Level Memphis Center
Sun 07:37:32 AM 34.7328 -89.2175 271° West 352 405 36,000  Level Memphis Center
Sun 07:38:32 AM 34.7319 -89.3386 270° West 362 417 36,000  Level Memphis Center
Sun 07:39:32 AM 34.7286 -89.4625 268° West 362 417 36,000  Level Memphis Center
Sun 07:40:32 AM 34.7275 -89.5964 269° West 362 417 36,000  Level Memphis Center
Sun 07:41:32 AM 34.7219 -89.7203 267° West 362 417 36,000  Level Memphis Center
Sun 07:42:32 AM 34.7225 -89.8467 270° West 374 430 36,000  Level Memphis Center
Sun 07:43:32 AM 34.7231 -89.9706 270° West 374 430 36,000  Level Memphis Center
Sun 07:44:32 AM 34.7233 -90.0792 270° West 367 422 36,000  Level Memphis Center
Sun 07:45:32 AM 34.7214 -90.2031 269° West 362 417 36,000  Level Memphis Center
Sun 07:46:32 AM 34.7214 -90.3217 270° West 362 417 36,000  Level Memphis Center
Sun 07:47:32 AM 34.7194 -90.4456 269° West 362 417 36,000  Level Memphis Center
Sun 07:48:32 AM 34.7172 -90.5694 269° West 367 422 36,000  Level Memphis Center
Sun 07:49:32 AM 34.7147 -90.7033 269° West 367 422 36,000  Level Memphis Center
Sun 07:50:32 AM 34.7122 -90.8269 269° West 367 422 36,000  Level Memphis Center
Sun 07:51:32 AM 34.7097 -90.9533 269° West 372 428 36,000  Level Memphis Center
Sun 07:52:32 AM 34.7069 -91.0797 269° West 372 428 36,000  Level Memphis Center
Sun 07:53:32 AM 34.7167 -91.2111 275° West 383 441 36,000  Level Memphis Center
Sun 07:54:32 AM 34.7553 -91.3456 289° West 401 461 36,000 -300 Level Memphis Center
Sun 07:55:32 AM 34.7708 -91.4797 278° West 402 463 35,400 -500 Descending Memphis Center
Sun 07:56:32 AM 34.7425 -91.6031 254° West 384 442 35,000 -200 Descending Memphis Center
Sun 07:57:32 AM 34.7183 -91.7214 256° West 373 429 35,000  Level Memphis Center
Sun 07:58:32 AM 34.6897 -91.8372 253° West 367 422 35,000  Level Memphis Center
Sun 07:59:32 AM 34.6656 -91.9581 256° West 367 422 35,000  Level Memphis Center
Sun 08:00:32 AM 34.6389 -92.0761 255° West 367 422 35,000  Level Memphis Center
Sun 08:01:32 AM 34.6122 -92.1942 255° West 367 422 35,000  Level Memphis Center
Sun 08:02:32 AM 34.5872 -92.3147 256° West 367 422 35,000  Level Memphis Center
Sun 08:03:32 AM 34.5625 -92.4328 256° West 367 422 35,000  Level Memphis Center
Sun 08:04:32 AM 34.5375 -92.5506 256° West 367 422 35,000  Level Memphis Center
Sun 08:05:32 AM 34.5103 -92.6733 255° West 374 430 35,000  Level Memphis Center
Sun 08:06:32 AM 34.5203 -92.8072 275° West 388 447 35,000  Level Memphis Center
Sun 08:07:32 AM 34.5406 -92.9414 280° West 393 452 35,000 -50 Level Memphis Center
Sun 08:08:32 AM 34.5606 -93.0708 281° West 398 458 34,900 -500 Descending Memphis Center
Sun 08:09:32 AM 34.5806 -93.2125 280° West 412 474 34,000 -450 Descending Memphis Center
Sun 08:10:32 AM 34.6000 -93.3569 279° West 422 486 34,000  Level Memphis Center
Sun 08:11:32 AM 34.5822 -93.4850 260° West 402 463 34,000  Level Memphis Center
Sun 08:12:32 AM 34.5356 -93.5969 243° Southwest 382 440 34,000  Level Memphis Center
Sun 08:13:32 AM 34.4847 -93.7083 241° Southwest 382 440 34,000  Level Memphis Center
Sun 08:15:15 AM 34.4039 -93.9050 244° Southwest 382 440 34,000  Level Fort Worth Center
Sun 08:17:15 AM 34.3036 -94.1328 242° Southwest 382 440 34,000  Level Fort Worth Center
Sun 08:18:15 AM 34.2586 -94.2475 245° Southwest 382 440 34,000 -450 Level Fort Worth Center
Sun 08:19:15 AM 34.2744 -94.3800 278° West 372 428 33,100 -1,000 Descending Fort Worth Center
Sun 08:20:15 AM 34.3108 -94.5094 289° West 384 442 32,000 -1,050 Descending Fort Worth Center
Sun 08:21:15 AM 34.3408 -94.6392 286° West 397 457 31,000 -1,000 Descending Fort Worth Center
Sun 08:22:15 AM 34.3708 -94.7692 286° West 397 457 30,000 -500 Descending Fort Worth Center
Sun 08:23:15 AM 34.4006 -94.8942 286° West 397 457 30,000  Level Fort Worth Center
Sun 08:24:15 AM 34.3925 -95.0203 266° West 384 442 30,000 -250 Level Fort Worth Center
Sun 08:25:15 AM 34.3217 -95.1278 231° Southwest 364 419 29,500 -700 Descending Fort Worth Center
Sun 08:26:15 AM 34.2442 -95.2353 229° Southwest 392 451 28,600 -1,000 Descending Fort Worth Center
Sun 08:27:15 AM 34.1708 -95.3375 229° Southwest 413 475 27,500 -1,000 Descending Fort Worth Center
Sun 08:28:15 AM 34.1056 -95.4294 229° Southwest 393 452 26,600 -950 Descending Fort Worth Center
Sun 08:29:15 AM 34.0167 -95.4839 207° Southwest 359 413 25,600 -1,000 Descending Fort Worth Center
Sun 08:30:15 AM 33.9164 -95.4839 180° South 334 384 24,600 -850 Descending Fort Worth Center
Sun 08:31:15 AM 33.8425 -95.5531 218° Southwest 330 380 23,900 -750 Descending Fort Worth Center
Sun 08:32:15 AM 33.8022 -95.6589 245° Southwest 340 391 23,100 -750 Descending Fort Worth Center
Sun 08:33:15 AM 33.7494 -95.7797 242° Southwest 389 448 22,400 -1,800 Descending Fort Worth Center
Sun 08:34:15 AM 33.6864 -95.9106 240° Southwest 418 481 19,500 -2,700 Descending Fort Worth Center
Sun 08:35:15 AM 33.6439 -96.0086 243° Southwest 399 459 17,000 -2,350 Descending Fort Worth Center
Sun 08:36:15 AM 33.5867 -96.1269 240° Southwest 376 433 14,800 -1,900 Descending Fort Worth Center
Sun 08:37:15 AM 33.5436 -96.2222 242° Southwest 376 433 13,200 -1,600 Descending Fort Worth Center
Sun 08:38:15 AM 33.4736 -96.3128 227° Southwest 353 406 11,600 -1,100 Descending Fort Worth Center
Sun 08:39:15 AM 33.4239 -96.3756 227° Southwest 308 354 11,000 -550 Descending Fort Worth Center
Sun 08:40:15 AM 33.3639 -96.4433 223° Southwest 279 321 10,500 -850 Descending Fort Worth Center
Sun 08:41:15 AM 33.3164 -96.5011 225° Southwest 272 313 9,300 -1,200 Descending Fort Worth Center
Sun 08:42:15 AM 33.2753 -96.5736 236° Southwest 272 313 8,100 -1,350 Descending Fort Worth Center
Sun 08:43:15 AM 33.2464 -96.6558 247° West 255 293 6,600 -1,350 Descending Fort Worth Center
Sun 08:44:15 AM 33.2178 -96.7206 242° Southwest 255 293 5,400 -800 Descending Fort Worth Center
Sun 08:45:15 AM 33.1764 -96.7956 237° Southwest 250 288 5,000 -400 Descending Fort Worth Center
Sun 08:46:15 AM 33.1453 -96.8578 239° Southwest 250 288 4,600 -750 Descending Fort Worth Center
Sun 08:47:15 AM 33.1017 -96.9297 234° Southwest 250 288 3,500 -977 Descending Fort Worth Center
Sun 08:47:41 AM 33.1000 -96.9500 264° West 224 258 3,200 -692 Descending Dallas / Fort Worth TRACON

Login

Don't have an account? Register now (free) for customized features, flight alerts, and more!